createdAt,value
2022-08-31T00:00:04.584Z,12.39
2022-08-31T00:05:06.896Z,12.38
2022-08-31T00:10:15.544Z,12.35
2022-08-31T00:15:20.085Z,12.32
2022-08-31T00:20:33.090Z,12.30
2022-08-31T00:25:37.671Z,12.23
2022-08-31T00:30:40.353Z,12.15
2022-08-31T00:35:43.093Z,12.12
2022-08-31T00:40:47.206Z,12.11
2022-08-31T00:45:49.046Z,12.11
2022-08-31T00:50:50.696Z,12.07
2022-08-31T00:55:52.541Z,12.05
2022-08-31T01:00:55.048Z,12.04
2022-08-31T01:05:56.917Z,12.03
2022-08-31T01:11:00.447Z,11.93
2022-08-31T01:16:08.910Z,11.86
2022-08-31T01:21:27.698Z,11.80
2022-08-31T01:26:31.025Z,11.72
2022-08-31T01:31:46.224Z,11.64
2022-08-31T01:36:50.171Z,11.62
2022-08-31T01:41:54.086Z,11.56
2022-08-31T01:46:56.922Z,11.54
2022-08-31T01:51:58.629Z,11.53
2022-08-31T01:57:01.867Z,11.52
2022-08-31T02:02:20.491Z,11.53
2022-08-31T02:07:22.264Z,11.53
2022-08-31T02:12:23.940Z,11.55
2022-08-31T02:17:26.800Z,11.60
2022-08-31T02:22:28.441Z,11.75
2022-08-31T02:27:30.091Z,11.75
2022-08-31T02:32:31.961Z,11.67
2022-08-31T02:37:33.635Z,11.67
2022-08-31T02:42:53.872Z,11.64
2022-08-31T02:48:01.063Z,11.57
2022-08-31T02:53:10.243Z,11.55
2022-08-31T02:58:14.375Z,11.52
2022-08-31T03:03:16.670Z,11.52
2022-08-31T03:08:19.473Z,11.55
2022-08-31T03:13:24.246Z,11.61
2022-08-31T03:18:25.947Z,11.74
2022-08-31T03:23:27.556Z,11.79
2022-08-31T03:28:29.224Z,11.85
2022-08-31T03:33:54.106Z,11.83
2022-08-31T03:38:56.792Z,11.90
2022-08-31T03:44:01.897Z,11.93
2022-08-31T03:49:05.746Z,12.01
2022-08-31T03:54:08.226Z,12.06
2022-08-31T03:59:10.104Z,12.12
2022-08-31T04:04:30.161Z,12.07
2022-08-31T04:09:52.021Z,12.07
2022-08-31T04:15:29.455Z,12.16
2022-08-31T04:20:57.405Z,12.13
2022-08-31T04:25:59.388Z,12.05
2022-08-31T04:31:08.928Z,12.01
2022-08-31T04:36:18.323Z,11.99
2022-08-31T04:41:22.211Z,12.03
2022-08-31T04:46:27.123Z,12.08
2022-08-31T04:51:35.459Z,12.18
2022-08-31T04:56:42.667Z,12.32
2022-08-31T05:01:45.926Z,12.49
2022-08-31T05:07:05.589Z,12.54
2022-08-31T05:12:07.969Z,12.66
2022-08-31T05:17:14.930Z,12.83
2022-08-31T05:22:17.111Z,12.89
2022-08-31T05:27:20.438Z,13.04
2022-08-31T05:32:22.069Z,13.16
2022-08-31T05:37:24.513Z,13.24
2022-08-31T05:42:26.506Z,13.26
2022-08-31T05:47:28.828Z,13.36
2022-08-31T05:52:30.806Z,13.42
2022-08-31T05:57:33.748Z,13.60
2022-08-31T06:02:37.012Z,13.80
2022-08-31T06:07:38.692Z,13.89
2022-08-31T06:12:47.391Z,14.02
2022-08-31T06:17:49.697Z,14.12
2022-08-31T06:22:51.493Z,14.11
2022-08-31T06:28:07.384Z,14.30
2022-08-31T06:33:09.116Z,14.54
2022-08-31T06:38:24.892Z,14.53
2022-08-31T06:43:47.696Z,14.65
2022-08-31T06:48:58.864Z,14.76
2022-08-31T06:54:16.116Z,14.99
2022-08-31T06:59:53.773Z,14.97
2022-08-31T07:05:20.026Z,14.91
2022-08-31T07:10:27.602Z,15.09
2022-08-31T07:15:29.631Z,14.94
2022-08-31T07:20:31.829Z,15.05
2022-08-31T07:25:36.996Z,15.30
2022-08-31T07:30:42.289Z,15.52
2022-08-31T07:35:46.228Z,15.64
2022-08-31T07:41:29.644Z,15.82
2022-08-31T07:46:32.140Z,15.85
2022-08-31T07:51:36.313Z,16.02
2022-08-31T07:56:46.578Z,16.28
2022-08-31T08:01:50.235Z,16.08
2022-08-31T08:06:56.777Z,16.32
2022-08-31T08:12:22.563Z,16.49
2022-08-31T08:17:46.515Z,16.78
2022-08-31T08:22:55.639Z,16.83
2022-08-31T08:28:22.745Z,17.13
2022-08-31T08:33:31.356Z,17.71
2022-08-31T08:38:39.431Z,18.01
2022-08-31T08:43:52.250Z,18.17
2022-08-31T08:49:00.450Z,18.91
2022-08-31T08:54:10.889Z,18.74
2022-08-31T08:59:19.541Z,18.89
2022-08-31T09:05:00.191Z,18.90
2022-08-31T09:10:34.494Z,18.96
2022-08-31T09:15:49.022Z,19.50
2022-08-31T09:21:22.240Z,19.41
2022-08-31T09:26:35.691Z,19.22
2022-08-31T09:32:01.079Z,19.35
2022-08-31T09:37:26.642Z,19.91
2022-08-31T09:42:32.164Z,20.48
2022-08-31T09:47:42.798Z,20.12
2022-08-31T09:53:03.164Z,20.47
2022-08-31T09:58:07.796Z,20.29
2022-08-31T10:03:20.787Z,19.92
2022-08-31T10:08:28.851Z,19.40
2022-08-31T10:14:04.586Z,19.30
2022-08-31T10:19:11.858Z,19.97
2022-08-31T10:24:34.755Z,19.90
2022-08-31T10:29:44.228Z,20.17
2022-08-31T10:35:05.865Z,20.12
2022-08-31T10:40:18.058Z,20.28
2022-08-31T10:45:24.025Z,19.97
2022-08-31T10:50:45.160Z,20.09
2022-08-31T10:56:02.242Z,19.36
2022-08-31T11:01:03.907Z,20.29
2022-08-31T11:06:34.261Z,20.32
2022-08-31T11:11:47.739Z,20.26
2022-08-31T11:17:18.943Z,20.81
2022-08-31T11:22:50.207Z,20.09
2022-08-31T11:28:23.631Z,19.50
2022-08-31T11:33:28.139Z,20.08
2022-08-31T11:38:52.134Z,19.77
2022-08-31T11:43:53.825Z,20.34
2022-08-31T11:48:55.503Z,20.62
2022-08-31T11:53:57.217Z,20.87
2022-08-31T11:59:37.769Z,21.21
2022-08-31T12:04:46.095Z,20.43
2022-08-31T12:10:04.795Z,20.17
2022-08-31T12:15:27.439Z,20.81
2022-08-31T12:21:12.113Z,21.20
2022-08-31T12:26:19.680Z,20.83
2022-08-31T12:31:21.396Z,20.31
2022-08-31T12:36:28.432Z,20.23
2022-08-31T12:41:30.099Z,20.90
2022-08-31T12:46:40.949Z,21.48
2022-08-31T12:52:12.251Z,21.78
2022-08-31T12:57:25.788Z,22.38
2022-08-31T13:02:34.921Z,22.37
2022-08-31T13:07:37.628Z,22.06
2022-08-31T13:12:39.923Z,21.77
2022-08-31T13:17:41.695Z,21.83
2022-08-31T13:22:44.709Z,21.52
2022-08-31T13:27:51.988Z,21.45
2022-08-31T13:32:54.665Z,22.20
2022-08-31T13:38:07.879Z,23.37
2022-08-31T13:43:10.732Z,23.28
2022-08-31T13:48:19.527Z,24.51
2022-08-31T13:53:39.944Z,25.84
2022-08-31T13:58:41.762Z,25.40
2022-08-31T14:03:59.506Z,24.75
2022-08-31T14:09:16.011Z,24.38
2022-08-31T14:14:24.177Z,24.01
2022-08-31T14:19:38.804Z,23.61
2022-08-31T14:24:42.482Z,22.87
2022-08-31T14:29:44.086Z,21.71
2022-08-31T14:34:49.120Z,21.80
2022-08-31T14:40:07.609Z,20.53
2022-08-31T14:45:21.132Z,20.47
2022-08-31T14:50:25.464Z,20.31
2022-08-31T14:55:28.869Z,20.20
2022-08-31T15:00:32.345Z,19.86
2022-08-31T15:05:39.110Z,19.99
2022-08-31T15:10:41.156Z,20.23
2022-08-31T15:15:45.911Z,20.10
2022-08-31T15:20:49.509Z,19.84
2022-08-31T15:26:06.254Z,20.07
2022-08-31T15:31:12.149Z,19.74
2022-08-31T15:36:15.500Z,19.67
2022-08-31T15:41:18.054Z,19.77
2022-08-31T15:46:40.159Z,19.81
2022-08-31T15:51:49.008Z,19.65
2022-08-31T15:56:51.346Z,19.33
2022-08-31T16:01:53.142Z,19.05
2022-08-31T16:06:56.627Z,19.03
2022-08-31T16:12:00.153Z,18.86
2022-08-31T16:17:01.763Z,18.75
2022-08-31T16:22:06.162Z,18.54
2022-08-31T16:27:12.438Z,18.43
2022-08-31T16:32:18.186Z,18.29
2022-08-31T16:37:20.608Z,18.24
2022-08-31T16:42:22.488Z,18.08
2022-08-31T16:47:24.099Z,18.01
2022-08-31T16:52:31.710Z,17.75
2022-08-31T16:57:34.603Z,17.58
2022-08-31T17:02:36.249Z,17.39
2022-08-31T17:07:42.685Z,17.17
2022-08-31T17:12:45.243Z,17.04
2022-08-31T17:17:48.035Z,16.88
2022-08-31T17:22:50.862Z,16.78
2022-08-31T17:27:59.851Z,16.70
2022-08-31T17:33:02.743Z,16.54
2022-08-31T17:38:04.515Z,16.38
2022-08-31T17:43:06.146Z,16.31
2022-08-31T17:48:07.756Z,16.22
2022-08-31T17:53:09.492Z,16.09
2022-08-31T17:58:11.236Z,15.93
2022-08-31T18:03:12.856Z,15.79
2022-08-31T18:08:15.157Z,15.62
2022-08-31T18:13:16.784Z,15.51
2022-08-31T18:18:18.710Z,15.37
2022-08-31T18:23:20.827Z,15.26
2022-08-31T18:28:22.518Z,15.15
2022-08-31T18:33:24.619Z,15.10
2022-08-31T18:38:26.486Z,15.00
2022-08-31T18:43:46.550Z,14.93
2022-08-31T18:49:01.169Z,14.86
2022-08-31T18:54:09.203Z,14.77
2022-08-31T18:59:11.017Z,14.70
2022-08-31T19:04:13.147Z,14.70
2022-08-31T19:09:14.807Z,14.73
2022-08-31T19:14:26.265Z,14.71
2022-08-31T19:19:30.308Z,14.73
2022-08-31T19:24:33.083Z,14.80
2022-08-31T19:29:35.028Z,14.91
2022-08-31T19:34:40.138Z,14.98
2022-08-31T19:39:45.825Z,15.01
2022-08-31T19:45:22.754Z,15.02
2022-08-31T19:50:15.023Z,15.01
2022-08-31T19:55:16.794Z,14.92
2022-08-31T20:00:19.979Z,14.83
2022-08-31T20:05:21.659Z,14.72
2022-08-31T20:10:23.277Z,14.59
2022-08-31T20:15:30.563Z,14.51
2022-08-31T20:20:36.123Z,14.51
2022-08-31T20:25:39.939Z,14.50
2022-08-31T20:30:43.531Z,14.55
2022-08-31T20:35:47.560Z,14.53
2022-08-31T20:40:55.008Z,14.54
2022-08-31T20:46:02.084Z,14.52
2022-08-31T20:51:20.076Z,14.55
2022-08-31T20:56:26.153Z,14.43
2022-08-31T21:01:31.149Z,14.31
2022-08-31T21:06:37.583Z,14.28
2022-08-31T21:11:41.029Z,14.23
2022-08-31T21:16:44.242Z,14.14
2022-08-31T21:21:46.557Z,14.06
2022-08-31T21:26:48.610Z,13.95
2022-08-31T21:31:55.909Z,13.81
2022-08-31T21:37:01.670Z,13.63
2022-08-31T21:42:03.974Z,13.46
2022-08-31T21:47:05.804Z,13.32
2022-08-31T21:52:08.762Z,13.21
2022-08-31T21:57:10.698Z,13.13
2022-08-31T22:02:12.426Z,13.04
2022-08-31T22:07:14.614Z,12.95
2022-08-31T22:12:18.091Z,12.86
2022-08-31T22:17:20.738Z,12.86
2022-08-31T22:22:23.520Z,12.81
2022-08-31T22:27:25.432Z,12.69
2022-08-31T22:32:27.266Z,12.63
2022-08-31T22:37:29.083Z,12.52
2022-08-31T22:42:31.228Z,12.43
2022-08-31T22:47:38.691Z,12.38
2022-08-31T22:52:51.273Z,12.47
2022-08-31T22:57:53.288Z,12.58
2022-08-31T23:02:55.609Z,12.63
2022-08-31T23:07:57.447Z,12.59
2022-08-31T23:12:59.239Z,12.54
2022-08-31T23:18:02.180Z,12.52
2022-08-31T23:23:06.075Z,12.61
2022-08-31T23:28:08.728Z,12.52
2022-08-31T23:33:10.570Z,12.44
2022-08-31T23:38:12.484Z,12.35
2022-08-31T23:43:15.827Z,12.27
2022-08-31T23:48:19.315Z,12.25
2022-08-31T23:53:23.275Z,12.18
2022-08-31T23:58:25.820Z,12.02
